Time;durP1;ratioP1;P1;durP2;ratioP2;P2;SDS_P1;SDS_P2;PMS_P1;PMS_P2;Temp;Humidity;BMP_temperature;BMP_pressure;BME280_temperature;BME280_humidity;BME280_pressure;Samples;Min_cycle;Max_cycle;Signal;HPM_P1;HPM_P2
2022/03/05 00:02:21;;;;;;;2.92;1.60;;;;;;;18.99;22.87;99040.78;5032242;28;20040;-71
2022/03/05 00:04:47;;;;;;;3.38;2.10;;;;;;;19.01;22.81;99031.53;5032659;28;20033;-70
2022/03/05 00:07:13;;;;;;;4.13;1.83;;;;;;;19.05;22.60;99023.91;5038414;28;20033;-71
2022/03/05 00:09:38;;;;;;;4.25;2.10;;;;;;;19.04;22.86;99036.50;5040156;28;20084;-73
2022/03/05 00:12:04;;;;;;;3.92;2.13;;;;;;;19.03;22.67;99026.00;5034572;28;20485;-71
2022/03/05 00:14:30;;;;;;;3.97;2.00;;;;;;;19.03;22.83;99031.34;5036963;28;20036;-71
2022/03/05 00:16:55;;;;;;;3.63;2.08;;;;;;;19.00;22.95;99021.00;5048902;28;20056;-71
2022/03/05 00:19:21;;;;;;;3.35;2.00;;;;;;;19.00;23.02;99027.19;5035678;28;20116;-69
2022/03/05 00:21:46;;;;;;;3.75;2.42;;;;;;;19.00;23.14;99021.81;5033754;28;20401;-71
2022/03/05 00:24:12;;;;;;;5.22;1.98;;;;;;;19.04;23.12;99014.25;5035704;28;20037;-75
2022/03/05 00:26:38;;;;;;;5.93;2.30;;;;;;;19.09;23.06;99016.34;5032732;28;20026;-69
2022/03/05 00:29:04;;;;;;;5.20;2.50;;;;;;;19.14;23.19;99020.13;5052192;28;20539;-71
2022/03/05 00:31:29;;;;;;;3.33;1.75;;;;;;;19.20;23.01;99015.84;5037680;28;20032;-69
2022/03/05 00:33:55;;;;;;;3.88;2.30;;;;;;;19.26;23.12;99015.09;5032662;28;20109;-67
2022/03/05 00:36:20;;;;;;;3.33;1.90;;;;;;;19.32;23.05;99011.63;5032446;28;20370;-72
2022/03/05 00:38:46;;;;;;;5.43;2.15;;;;;;;19.34;23.19;99020.34;5039623;28;20033;-72
2022/03/05 00:41:11;;;;;;;3.17;2.03;;;;;;;19.36;23.19;99022.81;5045707;28;20049;-71
2022/03/05 00:43:37;;;;;;;3.17;1.75;;;;;;;19.34;22.92;99009.59;5041167;28;20481;-69
2022/03/05 00:46:03;;;;;;;2.60;1.70;;;;;;;19.36;23.39;99031.72;5032819;28;20041;-71
2022/03/05 00:48:28;;;;;;;5.25;1.73;;;;;;;19.42;23.76;99038.16;5036071;28;20043;-71
2022/03/05 00:50:54;;;;;;;4.53;2.25;;;;;;;19.49;23.34;99028.31;5035368;28;20038;-72
2022/03/05 00:53:21;;;;;;;5.72;2.13;;;;;;;19.54;23.46;99026.91;5030928;28;20071;-72
2022/03/05 00:55:47;;;;;;;5.05;2.05;;;;;;;19.52;23.30;99035.97;5031493;28;20037;-73
2022/03/05 00:58:14;;;;;;;3.25;2.00;;;;;;;19.50;22.86;99032.66;5033065;28;20427;-71
2022/03/05 01:00:40;;;;;;;3.95;2.00;;;;;;;19.48;23.09;99029.31;5039870;28;20033;-72
2022/03/05 01:03:06;;;;;;;3.15;1.88;;;;;;;19.47;23.01;99033.06;5035042;28;20451;-70
2022/03/05 01:05:31;;;;;;;3.15;1.83;;;;;;;19.49;22.79;99033.66;5035557;28;20099;-71
2022/03/05 01:07:57;;;;;;;6.03;2.80;;;;;;;19.47;22.99;99029.53;5035388;28;20087;-73
2022/03/05 01:10:22;;;;;;;2.97;1.77;;;;;;;19.44;23.17;99036.13;5035971;28;20033;-73
2022/03/05 01:12:48;;;;;;;2.63;1.63;;;;;;;19.45;23.04;99032.41;5035283;28;20029;-73
2022/03/05 01:15:13;;;;;;;2.55;1.80;;;;;;;19.44;23.00;99027.22;5035607;28;20179;-72
2022/03/05 01:17:39;;;;;;;3.40;1.73;;;;;;;19.42;23.01;99029.25;5035717;28;20029;-73
2022/03/05 01:20:05;;;;;;;2.50;1.55;;;;;;;19.41;23.09;99039.19;5035579;28;20523;-70
2022/03/05 01:22:31;;;;;;;1.95;1.20;;;;;;;19.36;23.16;99028.19;5035431;28;20033;-75
2022/03/05 01:24:56;;;;;;;3.58;1.45;;;;;;;19.41;23.16;99031.13;5035079;28;20063;-74
2022/03/05 01:27:22;;;;;;;4.45;1.60;;;;;;;19.42;23.09;99031.94;5034629;28;20029;-71
2022/03/05 01:29:48;;;;;;;1.73;1.08;;;;;;;19.41;23.22;99031.13;5035082;28;20025;-71
2022/03/05 01:32:14;;;;;;;1.75;1.08;;;;;;;19.40;23.25;99021.41;5035081;28;20428;-72
2022/03/05 01:34:39;;;;;;;2.10;1.35;;;;;;;19.37;23.18;99027.16;5035109;28;20033;-75
2022/03/05 01:37:05;;;;;;;3.38;1.50;;;;;;;19.38;23.00;99018.09;5035449;28;20033;-73
2022/03/05 01:39:30;;;;;;;3.20;1.45;;;;;;;19.35;23.02;99015.78;5035283;28;20106;-73
2022/03/05 01:41:56;;;;;;;1.33;1.10;;;;;;;19.38;22.93;99020.78;5034587;28;20124;-71
2022/03/05 01:44:23;;;;;;;2.55;1.30;;;;;;;19.35;22.89;99022.00;5035001;28;20041;-73
2022/03/05 01:46:48;;;;;;;3.70;1.40;;;;;;;19.35;23.11;99011.25;5035641;28;20509;-74
2022/03/05 01:49:15;;;;;;;3.15;1.10;;;;;;;19.38;23.11;99025.31;5034865;28;20124;-72
2022/03/05 01:51:41;;;;;;;3.00;1.00;;;;;;;19.39;23.09;99011.72;5034734;28;20029;-72
2022/03/05 01:54:07;;;;;;;2.03;1.38;;;;;;;19.38;23.03;99015.41;5035235;28;20033;-73
2022/03/05 01:56:34;;;;;;;1.85;1.13;;;;;;;19.36;22.86;99017.44;5035106;28;20037;-74
2022/03/05 01:59:00;;;;;;;2.00;1.00;;;;;;;19.39;22.62;99033.16;5035630;28;20043;-75
2022/03/05 02:01:27;;;;;;;1.42;0.80;;;;;;;19.40;22.82;99024.09;5034626;28;20045;-74
2022/03/05 02:03:54;;;;;;;2.00;0.90;;;;;;;19.40;22.84;99028.66;5034517;28;20041;-76
2022/03/05 02:06:21;;;;;;;1.27;0.93;;;;;;;19.39;22.90;99032.34;5039801;28;20037;-72
2022/03/05 02:08:47;;;;;;;1.00;0.80;;;;;;;19.39;22.62;99030.47;5042302;28;20681;-72
2022/03/05 02:11:13;;;;;;;2.80;1.25;;;;;;;19.40;22.64;99028.66;5034433;28;20065;-73
2022/03/05 02:13:39;;;;;;;0.40;0.40;;;;;;;19.40;22.55;99029.47;5034114;28;20126;-73
2022/03/05 02:16:05;;;;;;;1.02;0.65;;;;;;;19.41;22.52;99024.94;5034254;28;20038;-71
2022/03/05 02:18:30;;;;;;;1.00;0.88;;;;;;;19.40;22.37;99034.84;5033790;28;20408;-73
2022/03/05 02:20:56;;;;;;;0.93;0.77;;;;;;;19.39;22.52;99033.16;5034129;28;20042;-76
2022/03/05 02:23:22;;;;;;;0.65;0.65;;;;;;;19.42;22.37;99031.94;5034071;28;20048;-72
2022/03/05 02:25:59;;;;;;;1.00;0.80;;;;;;;19.44;22.74;99040.63;5032794;28;20420;-71
2022/03/05 02:28:26;;;;;;;0.90;0.70;;;;;;;19.47;22.64;99040.25;5035394;28;20042;-76
2022/03/05 02:30:52;;;;;;;4.30;1.00;;;;;;;19.46;22.63;99031.41;5032828;28;20044;-71
2022/03/05 02:33:19;;;;;;;2.50;1.00;;;;;;;19.45;22.64;99037.78;5033321;28;20037;-73
2022/03/05 02:35:45;;;;;;;1.92;1.00;;;;;;;19.45;22.64;99043.16;5034252;28;20038;-71
2022/03/05 02:38:12;;;;;;;1.67;0.82;;;;;;;19.45;22.67;99037.78;5035335;28;20030;-73
2022/03/05 02:40:39;;;;;;;1.73;0.95;;;;;;;19.45;22.76;99035.09;5047156;28;20389;-75
2022/03/05 02:43:06;;;;;;;1.02;0.88;;;;;;;19.47;22.70;99030.38;5033603;28;20037;-74
2022/03/05 02:45:32;;;;;;;1.38;0.77;;;;;;;19.47;22.87;99034.91;5041680;28;20037;-70
2022/03/05 02:47:57;;;;;;;1.27;0.70;;;;;;;19.45;22.89;99031.56;5036349;28;20083;-70
2022/03/05 02:50:23;;;;;;;2.63;0.90;;;;;;;19.44;22.94;99046.84;5033979;28;20041;-72
2022/03/05 02:52:48;;;;;;;1.48;0.88;;;;;;;19.44;23.13;99038.81;5033792;28;20029;-71
2022/03/05 02:55:14;;;;;;;1.30;0.70;;;;;;;19.43;23.10;99034.47;5037054;28;20056;-72
2022/03/05 02:57:39;;;;;;;1.90;0.80;;;;;;;19.40;22.97;99040.19;5032984;28;20071;-73
2022/03/05 03:00:06;;;;;;;1.08;0.73;;;;;;;19.39;22.98;99041.22;5039264;28;20059;-74
2022/03/05 03:02:31;;;;;;;1.83;0.70;;;;;;;19.38;22.58;99026.13;5041122;28;20033;-70
2022/03/05 03:04:57;;;;;;;2.25;0.88;;;;;;;19.36;22.55;99030.84;5033856;28;20040;-71
2022/03/05 03:07:22;;;;;;;1.10;0.77;;;;;;;19.36;22.76;99047.81;5034838;28;20036;-77
2022/03/05 03:09:48;;;;;;;0.80;0.60;;;;;;;19.33;22.58;99037.44;5052494;28;20057;-74
2022/03/05 03:12:13;;;;;;;1.33;0.60;;;;;;;19.34;22.66;99040.94;5037762;28;20041;-74
2022/03/05 03:14:39;;;;;;;0.85;0.50;;;;;;;19.30;22.72;99051.22;5033065;28;20121;-72
2022/03/05 03:17:04;;;;;;;0.35;0.35;;;;;;;19.29;22.65;99054.94;5044287;28;20040;-71
2022/03/05 03:19:30;;;;;;;1.80;0.50;;;;;;;19.29;22.91;99049.56;5053140;28;20540;-70
2022/03/05 03:21:55;;;;;;;2.10;0.68;;;;;;;19.30;22.82;99045.06;5040359;28;20045;-71
2022/03/05 03:24:21;;;;;;;0.82;0.55;;;;;;;19.31;22.59;99041.34;5032956;28;20108;-74
2022/03/05 03:26:46;;;;;;;0.73;0.50;;;;;;;19.32;22.72;99043.84;5032457;28;20037;-73
2022/03/05 03:29:12;;;;;;;0.95;0.50;;;;;;;19.32;22.59;99045.69;5033244;28;20036;-72
2022/03/05 03:31:38;;;;;;;0.82;0.60;;;;;;;19.33;22.66;99042.00;5033316;28;20045;-70
2022/03/05 03:34:04;;;;;;;0.60;0.50;;;;;;;19.34;22.60;99047.16;5032275;28;20047;-73
2022/03/05 03:36:30;;;;;;;1.33;0.50;;;;;;;19.34;22.45;99057.88;5032519;28;20068;-74
2022/03/05 03:38:56;;;;;;;0.98;0.50;;;;;;;19.34;22.49;99057.03;5032252;28;20033;-71
2022/03/05 03:41:22;;;;;;;1.08;0.50;;;;;;;19.35;22.61;99058.69;5032309;28;20060;-75
2022/03/05 03:43:47;;;;;;;1.77;0.70;;;;;;;19.36;22.51;99068.41;5032957;28;20064;-76
2022/03/05 03:46:13;;;;;;;1.85;0.68;;;;;;;19.36;22.51;99071.09;5031062;28;20029;-69
2022/03/05 03:48:39;;;;;;;1.77;0.73;;;;;;;19.35;22.57;99066.75;5032262;28;20084;-72
2022/03/05 03:51:04;;;;;;;0.88;0.63;;;;;;;19.32;22.49;99070.66;5032903;28;20124;-70
2022/03/05 03:53:30;;;;;;;1.67;0.90;;;;;;;19.30;22.45;99078.06;5035526;28;20061;-72
2022/03/05 03:55:56;;;;;;;1.85;0.70;;;;;;;19.29;22.63;99079.06;5032734;28;20033;-74
2022/03/05 03:58:21;;;;;;;0.90;0.80;;;;;;;19.28;22.74;99080.09;5032927;28;20037;-70
2022/03/05 04:00:47;;;;;;;1.20;0.70;;;;;;;19.27;22.74;99078.44;5032720;28;20036;-71
2022/03/05 04:03:12;;;;;;;3.03;1.05;;;;;;;19.29;22.62;99080.94;5030389;28;20408;-71
2022/03/05 04:05:38;;;;;;;1.17;0.80;;;;;;;19.33;22.48;99074.19;5032282;28;20396;-71
2022/03/05 04:10:48;;;;;;;3.67;0.95;;;;;;;19.29;22.71;99091.66;5032897;28;20107;-74
2022/03/05 04:13:14;;;;;;;1.27;0.70;;;;;;;19.27;22.73;99094.53;5032145;28;20544;-74
2022/03/05 04:15:39;;;;;;;2.28;0.47;;;;;;;19.25;22.37;99103.78;5031982;28;20045;-71
2022/03/05 04:18:06;;;;;;;1.58;0.95;;;;;;;19.25;22.67;99096.59;5039232;28;20083;-72
2022/03/05 04:20:32;;;;;;;0.77;0.60;;;;;;;19.25;22.30;99090.38;5032034;28;20036;-73
2022/03/05 04:22:58;;;;;;;1.33;0.60;;;;;;;19.21;22.12;99093.44;5037549;28;20568;-69
2022/03/05 04:25:25;;;;;;;1.60;0.63;;;;;;;19.20;22.39;99101.66;5032140;28;20127;-71
2022/03/05 04:27:50;;;;;;;1.27;1.00;;;;;;;19.20;22.49;99099.81;5032478;28;20124;-73
2022/03/05 04:30:16;;;;;;;2.28;0.75;;;;;;;19.16;22.54;99111.09;5032447;28;20516;-71
2022/03/05 04:32:41;;;;;;;1.58;0.65;;;;;;;19.13;22.55;99114.16;5033217;28;20500;-73
2022/03/05 04:35:08;;;;;;;0.57;0.50;;;;;;;19.14;22.59;99118.50;5035049;28;20037;-72
2022/03/05 04:37:34;;;;;;;0.80;0.40;;;;;;;19.14;22.29;99118.50;5035763;28;20033;-71
2022/03/05 04:40:00;;;;;;;1.42;0.68;;;;;;;19.16;22.25;99125.34;5036435;28;20555;-72
2022/03/05 04:42:25;;;;;;;1.05;0.60;;;;;;;19.22;22.33;99126.47;5035717;28;20037;-72
2022/03/05 04:44:51;;;;;;;0.45;0.45;;;;;;;19.24;22.50;99116.38;5037021;28;20122;-70
2022/03/05 04:47:16;;;;;;;1.98;1.10;;;;;;;19.29;22.37;99126.53;5035614;28;20029;-72
2022/03/05 04:49:42;;;;;;;1.27;0.63;;;;;;;19.29;22.30;99126.53;5036312;28;20124;-75
2022/03/05 04:52:08;;;;;;;1.15;0.82;;;;;;;19.30;22.50;99133.56;5035867;28;20514;-68
2022/03/05 04:54:33;;;;;;;2.53;0.68;;;;;;;19.32;22.62;99143.09;5034968;28;20072;-70
2022/03/05 04:57:00;;;;;;;2.20;0.65;;;;;;;19.33;22.47;99139.38;5035128;28;20067;-72
2022/03/05 04:59:25;;;;;;;1.35;0.88;;;;;;;19.26;22.43;99135.81;5035302;28;20048;-74
2022/03/05 05:01:52;;;;;;;1.70;0.90;;;;;;;19.30;22.53;99146.97;5035042;28;20037;-74
2022/03/05 05:04:18;;;;;;;4.30;0.77;;;;;;;19.27;22.63;99142.81;5035703;28;20048;-70
2022/03/05 05:06:44;;;;;;;1.85;0.90;;;;;;;19.28;22.51;99138.28;5035290;28;20052;-73
2022/03/05 05:09:09;;;;;;;1.13;0.63;;;;;;;19.29;22.53;99130.03;5035254;28;20054;-71
2022/03/05 05:11:35;;;;;;;0.90;0.70;;;;;;;19.29;22.60;99148.00;5035356;28;20481;-71
2022/03/05 05:14:00;;;;;;;1.58;0.77;;;;;;;19.29;22.79;99137.28;5035054;28;20040;-70
2022/03/05 05:16:26;;;;;;;1.15;0.60;;;;;;;19.29;22.56;99148.00;5054214;28;20059;-72
2022/03/05 05:21:35;;;;;;;1.55;0.68;;;;;;;19.19;22.49;99143.72;5052256;28;20131;-72
2022/03/05 05:24:01;;;;;;;1.90;0.80;;;;;;;19.26;22.54;99149.22;5034860;28;20120;-72
2022/03/05 05:26:26;;;;;;;3.53;0.60;;;;;;;19.24;22.61;99159.28;5035239;28;20033;-69
2022/03/05 05:28:52;;;;;;;2.95;0.65;;;;;;;19.23;22.61;99157.63;5034449;28;20037;-71
2022/03/05 05:31:17;;;;;;;1.30;0.70;;;;;;;19.24;22.19;99151.25;5035330;28;20030;-73
2022/03/05 05:33:45;;;;;;;1.40;0.90;;;;;;;19.23;22.37;99154.09;5034927;28;20033;-71
2022/03/05 05:36:12;;;;;;;2.70;1.10;;;;;;;19.23;22.23;99159.47;5035666;28;20035;-72
2022/03/05 05:38:39;;;;;;;2.20;0.98;;;;;;;19.17;22.04;99153.84;5033691;28;20160;-72
2022/03/05 05:41:04;;;;;;;2.00;0.90;;;;;;;19.19;22.27;99157.16;5034865;28;20065;-74
2022/03/05 05:43:30;;;;;;;2.40;1.08;;;;;;;19.17;22.18;99156.53;5034617;28;20075;-74
2022/03/05 05:45:55;;;;;;;1.85;1.00;;;;;;;19.19;22.32;99167.06;5034726;28;20572;-74
2022/03/05 05:48:21;;;;;;;5.43;1.20;;;;;;;19.18;22.34;99176.97;5035062;28;20033;-74
2022/03/05 05:50:46;;;;;;;2.25;1.13;;;;;;;19.19;22.33;99167.06;5035224;28;20037;-72
2022/03/05 05:53:12;;;;;;;1.85;1.10;;;;;;;19.19;22.37;99170.56;5047786;28;20049;-74
2022/03/05 05:55:37;;;;;;;2.55;1.00;;;;;;;19.21;22.16;99173.88;5055016;28;20036;-72
2022/03/05 05:58:03;;;;;;;1.58;1.05;;;;;;;19.25;22.28;99181.56;5042979;28;20067;-72
2022/03/05 06:00:28;;;;;;;1.85;1.13;;;;;;;19.24;22.17;99179.91;5034830;28;20485;-71
2022/03/05 06:02:54;;;;;;;1.75;1.00;;;;;;;19.24;22.17;99172.69;5034625;28;20041;-75
2022/03/05 06:05:19;;;;;;;2.15;0.85;;;;;;;19.25;22.45;99178.88;5034893;28;20774;-70
2022/03/05 06:07:45;;;;;;;1.75;1.27;;;;;;;19.24;22.16;99177.22;5034094;28;20120;-71
2022/03/05 06:10:10;;;;;;;1.08;0.90;;;;;;;19.29;22.13;99177.50;5034514;28;20048;-72
2022/03/05 06:12:37;;;;;;;3.15;1.23;;;;;;;19.30;22.20;99174.63;5034598;28;20048;-74
2022/03/05 06:15:04;;;;;;;2.03;1.02;;;;;;;19.35;22.16;99182.09;5051224;28;20127;-75
2022/03/05 06:17:30;;;;;;;3.83;1.10;;;;;;;19.37;22.14;99180.06;5049665;28;20036;-75
2022/03/05 06:19:56;;;;;;;3.17;1.17;;;;;;;19.40;22.19;99178.88;5034520;28;20045;-72
2022/03/05 06:22:23;;;;;;;3.63;1.02;;;;;;;19.38;22.21;99184.41;5033850;28;20460;-71
2022/03/05 06:24:48;;;;;;;4.85;1.00;;;;;;;19.39;22.12;99183.41;5047707;28;20036;-75
2022/03/05 06:27:14;;;;;;;5.30;1.75;;;;;;;19.39;22.21;99182.59;5054282;28;20036;-76
2022/03/05 06:29:39;;;;;;;3.08;1.15;;;;;;;19.37;22.41;99180.06;5046244;28;20045;-75
2022/03/05 06:32:06;;;;;;;2.38;1.20;;;;;;;19.36;22.11;99184.63;5034103;28;20436;-75
2022/03/05 06:34:31;;;;;;;1.13;0.98;;;;;;;19.40;22.20;99182.38;5033992;28;20045;-72
2022/03/05 06:36:57;;;;;;;1.98;1.10;;;;;;;19.40;22.26;99185.06;5034231;28;20439;-76
2022/03/05 06:39:23;;;;;;;1.65;1.10;;;;;;;19.41;22.16;99181.38;5032646;28;20037;-72
2022/03/05 06:41:49;;;;;;;1.90;1.10;;;;;;;19.44;21.78;99190.88;5034375;28;20033;-73
2022/03/05 06:44:15;;;;;;;1.95;0.98;;;;;;;19.45;21.90;99182.66;5034181;28;20112;-74
2022/03/05 06:46:41;;;;;;;2.67;1.52;;;;;;;19.46;22.04;99187.00;5033459;28;20502;-74
2022/03/05 06:49:06;;;;;;;1.95;1.30;;;;;;;19.48;22.11;99186.81;5033925;28;20037;-72
2022/03/05 06:51:32;;;;;;;2.13;1.05;;;;;;;19.49;22.12;99205.41;5033785;28;20044;-73
2022/03/05 06:53:57;;;;;;;3.53;1.20;;;;;;;19.49;22.21;99197.34;5033265;28;20037;-75
2022/03/05 06:56:23;;;;;;;3.15;1.02;;;;;;;19.51;22.11;99207.91;5033146;28;20041;-71
2022/03/05 06:58:49;;;;;;;7.10;1.60;;;;;;;19.54;21.78;99217.44;5033821;28;20040;-73
2022/03/05 07:01:15;;;;;;;2.63;1.13;;;;;;;19.54;22.06;99204.00;5013805;28;20033;-75
2022/03/05 07:03:41;;;;;;;2.00;1.15;;;;;;;19.54;21.85;99206.69;5040982;28;20064;-75
2022/03/05 07:06:06;;;;;;;4.43;1.63;;;;;;;19.54;22.13;99206.69;5032039;28;20057;-74
2022/03/05 07:08:32;;;;;;;4.13;1.85;;;;;;;19.56;21.95;99210.03;5032953;28;20053;-73
2022/03/05 07:10:57;;;;;;;3.53;1.50;;;;;;;19.57;21.81;99212.50;5033130;28;20098;-73
2022/03/05 07:13:23;;;;;;;2.90;1.48;;;;;;;19.57;21.88;99214.38;5033375;28;20110;-74
2022/03/05 07:15:48;;;;;;;2.22;1.25;;;;;;;19.59;22.03;99206.97;5033319;28;20424;-71
2022/03/05 07:18:14;;;;;;;1.50;1.30;;;;;;;19.61;21.72;99205.75;5038186;28;20039;-72
2022/03/05 07:20:39;;;;;;;3.42;1.60;;;;;;;19.64;21.63;99196.50;5048638;28;20460;-72
2022/03/05 07:23:06;;;;;;;3.28;1.50;;;;;;;19.67;22.04;99198.81;5033183;28;20052;-73
2022/03/05 07:25:39;;;;;;;3.63;1.63;;;;;;;19.72;21.88;99199.06;5032728;28;20484;-72
2022/03/05 07:28:09;;;;;;;4.20;1.23;;;;;;;19.77;21.69;99202.03;5034012;28;20080;-73
2022/03/05 07:30:37;;;;;;;5.38;1.73;;;;;;;19.77;21.84;99199.34;5053237;28;20041;-76
2022/03/05 07:33:04;;;;;;;4.10;1.40;;;;;;;19.79;21.81;99199.97;5043039;28;20091;-74
2022/03/05 07:35:29;;;;;;;2.60;1.30;;;;;;;19.82;21.80;99202.28;5033188;28;20052;-75
2022/03/05 07:37:55;;;;;;;5.32;1.58;;;;;;;19.84;21.85;99210.16;5033144;28;20440;-72
2022/03/05 07:40:20;;;;;;;4.60;1.15;;;;;;;19.84;21.57;99196.75;5033020;28;20029;-75
2022/03/05 07:42:46;;;;;;;2.58;1.60;;;;;;;19.85;21.66;99201.09;5032891;28;20171;-70
2022/03/05 07:45:12;;;;;;;1.92;1.40;;;;;;;19.88;21.65;99197.22;5033145;28;20030;-72
2022/03/05 07:47:37;;;;;;;2.63;1.45;;;;;;;19.91;21.70;99204.91;5032616;28;20037;-73
2022/03/05 07:50:04;;;;;;;3.33;1.65;;;;;;;19.93;21.53;99203.69;5032658;28;20123;-73
2022/03/05 07:52:30;;;;;;;3.88;1.25;;;;;;;19.92;21.67;99191.28;5032406;28;20033;-74
2022/03/05 07:54:56;;;;;;;3.38;1.52;;;;;;;19.96;21.71;99189.03;5033032;28;20044;-72
2022/03/05 07:57:21;;;;;;;2.83;1.20;;;;;;;19.98;21.80;99192.34;5032807;28;20055;-68
2022/03/05 07:59:47;;;;;;;6.05;1.52;;;;;;;20.02;21.59;99199.03;5032318;28;20041;-73
2022/03/05 08:02:15;;;;;;;3.50;1.70;;;;;;;19.99;21.57;99185.97;5032623;28;20033;-73
2022/03/05 08:04:42;;;;;;;1.83;1.20;;;;;;;19.98;21.95;99200.41;5032614;28;20030;-73
2022/03/05 08:07:07;;;;;;;2.65;1.65;;;;;;;20.01;21.68;99197.34;5031811;28;20044;-73
2022/03/05 08:09:35;;;;;;;3.40;0.95;;;;;;;20.04;21.77;99201.50;5032514;28;20517;-73
2022/03/05 08:12:03;;;;;;;2.13;1.20;;;;;;;20.05;21.81;99211.22;5031883;28;20037;-74
2022/03/05 08:14:28;;;;;;;6.05;1.30;;;;;;;20.05;21.75;99200.47;5032086;28;20033;-72
2022/03/05 08:16:54;;;;;;;3.35;1.25;;;;;;;20.04;21.64;99199.66;5032327;28;20038;-73
2022/03/05 08:19:20;;;;;;;2.97;1.20;;;;;;;20.08;21.56;99197.41;5031953;28;20037;-72
2022/03/05 08:21:45;;;;;;;2.55;1.58;;;;;;;20.09;21.41;99205.28;5032234;28;20488;-71
2022/03/05 08:24:11;;;;;;;3.92;1.70;;;;;;;20.12;21.52;99204.91;5031779;28;20033;-70
2022/03/05 08:26:37;;;;;;;2.72;1.40;;;;;;;20.14;21.61;99215.47;5032430;28;20037;-71
2022/03/05 08:29:03;;;;;;;2.95;1.80;;;;;;;20.17;21.27;99219.63;5031284;28;20037;-73
2022/03/05 08:31:31;;;;;;;4.00;1.35;;;;;;;20.17;21.35;99214.25;5032254;28;20049;-73
2022/03/05 08:34:01;;;;;;;1.85;1.08;;;;;;;20.17;21.22;99233.06;5031331;28;20025;-70
2022/03/05 08:36:30;;;;;;;3.42;1.08;;;;;;;20.18;21.02;99218.59;5032096;28;20061;-72
2022/03/05 08:38:56;;;;;;;2.53;1.05;;;;;;;20.16;21.04;99223.31;5013280;28;20400;-71
2022/03/05 08:41:22;;;;;;;2.97;1.30;;;;;;;20.12;21.08;99225.56;5012782;28;20493;-70
2022/03/05 08:43:47;;;;;;;2.10;1.20;;;;;;;20.11;21.07;99229.28;5012436;28;20044;-72
2022/03/05 08:46:13;;;;;;;1.27;1.10;;;;;;;20.13;20.96;99236.09;5020100;28;20071;-72
2022/03/05 08:48:38;;;;;;;4.28;1.40;;;;;;;20.11;20.92;99230.09;5031361;28;20101;-72
2022/03/05 08:51:04;;;;;;;1.92;1.38;;;;;;;20.13;20.95;99224.53;5031911;28;20037;-69
2022/03/05 08:53:30;;;;;;;3.75;1.27;;;;;;;20.09;21.67;99242.88;5033178;28;20033;-70
2022/03/05 08:55:55;;;;;;;2.50;1.42;;;;;;;19.79;22.44;99229.50;5031841;28;20033;-70
2022/03/05 08:58:22;;;;;;;2.75;1.17;;;;;;;19.42;23.03;99236.69;5031481;28;20065;-71
2022/03/05 09:00:48;;;;;;;6.13;1.48;;;;;;;19.08;23.23;99237.25;5032196;28;20500;-71
2022/03/05 09:03:14;;;;;;;3.28;1.45;;;;;;;18.80;23.25;99240.50;5032116;28;20046;-70
2022/03/05 09:05:41;;;;;;;4.97;1.25;;;;;;;18.58;23.51;99232.31;5031908;28;20120;-73
2022/03/05 09:08:06;;;;;;;2.10;1.10;;;;;;;18.41;23.43;99237.78;5039363;28;20099;-73
2022/03/05 09:10:32;;;;;;;2.53;1.20;;;;;;;18.27;23.76;99239.41;5052066;28;20040;-71
2022/03/05 09:12:58;;;;;;;3.13;1.20;;;;;;;18.14;23.81;99236.50;5035152;28;20400;-72
2022/03/05 09:15:24;;;;;;;2.15;1.10;;;;;;;18.02;24.03;99240.56;5039499;28;20047;-70
2022/03/05 09:17:49;;;;;;;3.65;1.50;;;;;;;17.93;24.05;99248.63;5051807;28;20484;-71
2022/03/05 09:20:15;;;;;;;2.53;1.38;;;;;;;17.83;24.24;99245.34;5040441;28;20485;-70
2022/03/05 09:22:41;;;;;;;3.45;1.27;;;;;;;17.80;24.34;99245.69;5034981;28;20029;-71
2022/03/05 09:25:08;;;;;;;4.30;1.38;;;;;;;17.77;24.38;99248.72;5035248;28;20037;-74
2022/03/05 09:27:34;;;;;;;2.38;1.20;;;;;;;17.75;24.36;99250.72;5038715;28;20188;-69
2022/03/05 09:29:59;;;;;;;2.90;1.20;;;;;;;17.73;24.24;99258.94;5034918;28;20124;-74
2022/03/05 09:32:25;;;;;;;1.92;1.08;;;;;;;17.69;24.17;99263.81;5034676;28;20037;-72
2022/03/05 09:34:51;;;;;;;5.35;1.20;;;;;;;17.66;24.10;99257.94;5033960;28;20033;-76
2022/03/05 09:37:16;;;;;;;4.05;1.30;;;;;;;17.60;24.00;99256.81;5034203;28;20030;-72
2022/03/05 09:39:42;;;;;;;3.22;1.40;;;;;;;17.63;24.03;99261.81;5034979;28;20029;-71
2022/03/05 09:42:07;;;;;;;4.20;1.30;;;;;;;17.60;24.25;99262.16;5035322;28;20033;-70
2022/03/05 09:44:34;;;;;;;4.18;1.27;;;;;;;17.58;24.27;99272.19;5034696;28;20108;-73
2022/03/05 09:47:01;;;;;;;2.13;1.10;;;;;;;17.53;24.12;99270.03;5033632;28;20033;-73
2022/03/05 09:49:28;;;;;;;1.63;1.13;;;;;;;17.51;24.13;99265.88;5024042;28;20039;-73
2022/03/05 09:51:58;;;;;;;5.75;1.30;;;;;;;17.45;24.05;99271.91;5034481;28;20048;-71
2022/03/05 09:54:23;;;;;;;7.57;1.50;;;;;;;17.41;24.23;99275.97;5034019;28;20674;-70
2022/03/05 09:56:50;;;;;;;2.33;1.20;;;;;;;17.34;23.76;99271.28;5030647;28;20148;-73
2022/03/05 09:59:15;;;;;;;3.53;1.85;;;;;;;17.34;24.11;99281.97;5033125;28;20037;-70
2022/03/05 10:01:42;;;;;;;2.67;1.10;;;;;;;17.32;23.89;99280.50;5034357;28;20044;-69
2022/03/05 10:04:19;;;;;;;3.38;1.33;;;;;;;17.32;24.06;99283.97;5034393;28;20037;-67
2022/03/05 10:06:45;;;;;;;4.43;1.20;;;;;;;17.29;23.84;99287.00;5033815;28;20033;-71
2022/03/05 10:09:30;;;;;;;5.00;1.60;;;;;;;17.29;24.18;99286.19;5036953;28;20401;-74
2022/03/05 10:11:56;;;;;;;2.67;1.20;;;;;;;17.27;23.95;99283.69;5029288;28;20570;-74
2022/03/05 10:14:21;;;;;;;2.30;1.40;;;;;;;17.24;24.23;99295.53;5047253;28;20072;-71
2022/03/05 10:16:47;;;;;;;2.42;1.15;;;;;;;17.23;23.98;99291.19;5033499;28;20039;-73
2022/03/05 10:19:23;;;;;;;4.35;1.27;;;;;;;17.20;24.29;99293.38;5046578;28;20121;-78
2022/03/05 10:22:03;;;;;;;7.32;1.40;;;;;;;17.18;23.86;99296.22;5037796;28;20044;-71
2022/03/05 10:24:40;;;;;;;7.80;1.25;;;;;;;17.16;24.28;99300.06;5043723;28;20040;-71
2022/03/05 10:27:07;;;;;;;4.68;1.48;;;;;;;17.14;24.08;99297.56;5032379;28;20408;-69
2022/03/05 10:29:35;;;;;;;4.53;1.40;;;;;;;17.11;23.65;99292.53;5033497;28;20041;-72
2022/03/05 10:32:09;;;;;;;3.00;1.20;;;;;;;17.09;23.63;99297.22;5032822;28;20025;-74
2022/03/05 10:34:53;;;;;;;3.13;1.13;;;;;;;17.05;23.86;99291.38;5041418;28;20037;-70
2022/03/05 10:37:20;;;;;;;2.40;1.20;;;;;;;17.00;23.81;99292.91;5051888;28;20036;-73
2022/03/05 10:39:47;;;;;;;2.55;1.40;;;;;;;17.00;23.79;99291.06;5053940;28;20029;-71
2022/03/05 10:42:21;;;;;;;4.15;1.13;;;;;;;16.97;23.93;99299.44;5033988;28;20048;-69
2022/03/05 10:45:01;;;;;;;1.95;1.20;;;;;;;17.06;23.92;99308.25;5039783;28;20025;-73
2022/03/05 10:47:43;;;;;;;1.80;0.85;;;;;;;17.07;23.67;99297.41;5036668;28;20140;-70
2022/03/05 10:50:21;;;;;;;;;;;;;;;17.02;24.08;99302.41;5034386;28;20068;-72
2022/03/05 10:53:02;;;;;;;3.72;1.02;;;;;;;17.03;24.02;99296.06;5038935;28;19955;-72
2022/03/05 10:55:36;;;;;;;2.25;1.20;;;;;;;17.11;24.03;99295.22;5036792;28;20033;-74
2022/03/05 10:58:14;;;;;;;5.90;1.13;;;;;;;17.17;23.61;99304.41;5033596;28;20052;-74
2022/03/05 11:00:41;;;;;;;4.40;1.70;;;;;;;17.17;23.57;99291.88;5033510;28;20112;-74
2022/03/05 11:03:07;;;;;;;3.20;1.17;;;;;;;17.10;23.89;99293.56;5032736;28;20037;-76
2022/03/05 11:05:36;;;;;;;5.00;1.25;;;;;;;17.05;23.71;99294.06;5033697;28;20041;-77
2022/03/05 11:08:04;;;;;;;5.75;0.90;;;;;;;17.03;23.82;99293.41;5033311;28;20509;-76
2022/03/05 11:10:30;;;;;;;1.38;0.98;;;;;;;17.02;23.80;99297.06;5033655;28;20087;-73
2022/03/05 11:13:03;;;;;;;5.78;1.58;;;;;;;16.99;23.71;99296.59;5033148;28;20404;-74
2022/03/05 11:15:29;;;;;;;3.60;1.02;;;;;;;16.99;23.66;99300.06;5039536;28;20036;-75
2022/03/05 11:17:57;;;;;;;2.00;1.40;;;;;;;16.98;23.75;99295.75;5053121;28;20040;-73
2022/03/05 11:20:23;;;;;;;2.55;1.17;;;;;;;16.93;23.94;99284.69;5053155;28;20123;-76
2022/03/05 11:22:50;;;;;;;3.67;1.17;;;;;;;16.93;23.89;99288.19;5048600;28;20117;-73
2022/03/05 11:25:20;;;;;;;2.25;1.27;;;;;;;16.96;23.70;99300.44;5034389;28;20033;-73
2022/03/05 11:27:52;;;;;;;2.33;1.38;;;;;;;16.92;23.81;99288.38;5051947;28;20036;-75
2022/03/05 11:30:18;;;;;;;3.70;1.10;;;;;;;16.91;23.76;99289.38;5053327;28;20040;-78
2022/03/05 11:32:44;;;;;;;2.20;1.30;;;;;;;16.96;23.98;99297.75;5047479;28;20068;-76
2022/03/05 11:35:23;;;;;;;2.10;1.40;;;;;;;17.03;23.99;99305.94;5032823;28;20061;-75
2022/03/05 11:37:50;;;;;;;3.95;1.20;;;;;;;17.03;23.54;99300.59;5032973;28;20105;-72